Time;durP1;ratioP1;P1;durP2;ratioP2;P2;SDS_P1;SDS_P2;PMS_P1;PMS_P2;Temp;Humidity;BMP_temperature;BMP_pressure;BME280_temperature;BME280_humidity;BME280_pressure;Samples;Min_cycle;Max_cycle;Signal;HPM_P1;HPM_P2
2022/08/13 00:00:59;;;;;;;;;;;;;;;25.93;55.60;97050.94;220986;263;164769;-59
2022/08/13 00:02:10;;;;;;;;;;;;;;;25.99;55.66;97051.48;221012;263;166398;-58
2022/08/13 00:03:05;;;;;;;;;;;;;;;25.93;55.72;97057.08;222123;261;136862;-52
2022/08/13 16:26:28;;;;;;;;;;;;;;;;;;228612;255;26321;-60
2022/08/13 16:27:38;;;;;;;;;;;;;;;;;;225197;249;93249;-64
2022/08/13 16:30:47;;;;;;;;;;;;;;;;;;227549;255;33256;-57
2022/08/13 16:31:48;;;;;;;;;;;;;;;;;;225530;258;32306;-64
2022/08/13 16:33:00;;;;;;;;;;;;;;;27.84;57.33;96746.53;227453;255;34637;-59
2022/08/13 16:34:01;;;;;;;;;;;;;;;26.15;60.34;96752.22;223377;260;98878;-56
2022/08/13 16:35:04;;;;;;;;;;;;;;;25.42;62.23;96745.47;223116;261;98019;-54
2022/08/13 16:36:06;;;;;;;;;;;;;;;25.16;63.19;96745.52;222955;261;154743;-62
2022/08/13 16:37:09;;;;;;;;;;;;;;;25.09;63.38;96746.74;224314;259;155867;-60
2022/08/13 16:38:11;;;;;;;;;;;;;;;24.94;63.92;96739.27;222626;262;155828;-55
2022/08/13 16:39:12;;;;;;;;;;;;;;;24.81;63.77;96739.39;222371;262;155579;-54
2022/08/13 16:40:13;;;;;;;;;;;;;;;24.96;63.74;96736.92;222459;262;156417;-55
2022/08/13 16:41:15;;;;;;;;;;;;;;;25.00;63.50;96733.67;221964;262;154405;-59
2022/08/13 16:42:16;;;;;;;;;;;;;;;24.85;63.68;96737.27;221915;262;157271;-56
2022/08/13 16:43:18;;;;;;;;;;;;;;;25.02;63.55;96734.13;222412;262;154425;-57
2022/08/13 16:44:19;;;;;;;;;;;;;;;24.98;63.41;96732.62;222142;262;156081;-54
2022/08/13 16:45:23;;;;;;;;;;;;;;;25.14;63.29;96731.81;222002;262;157183;-61
2022/08/13 16:46:25;;;;;;;;;;;;;;;25.14;64.25;96729.84;223362;260;123323;-57
2022/08/13 16:47:26;;;;;;;;;;;;;;;25.26;62.95;96728.30;223227;260;154465;-56
2022/08/13 16:48:29;;;;;;;;;;;;;;;25.21;62.72;96726.42;222959;261;156102;-55
2022/08/13 16:49:31;;;;;;;;;;;;;;;25.54;62.14;96728.67;221990;262;157621;-57
2022/08/13 16:50:33;;;;;;;;;;;;;;;25.71;61.67;96724.05;222140;262;154426;-57
2022/08/13 16:51:35;;;;;;;;;;;;;;;25.76;61.49;96729.32;223383;260;154420;-54
2022/08/13 16:52:36;;;;;;;;;;;;;;;25.81;61.35;96730.98;222044;262;155106;-57
2022/08/13 16:53:37;;;;;;;;;;;;;;;25.75;61.41;96731.08;221934;262;155477;-55
2022/08/13 16:54:39;;;;;;;;;;;;;;;25.70;61.50;96726.61;222957;261;155563;-56
2022/08/13 16:55:40;;;;;;;;;;;;;;;25.57;61.67;96730.70;221855;262;153167;-55
2022/08/13 16:56:42;;;;;;;;;;;;;;;25.37;61.91;96732.09;221899;262;156723;-61
2022/08/13 16:57:48;;;;;;;;;;;;;;;25.08;62.59;96725.73;223191;260;156460;-57
2022/08/13 16:58:53;;;;;;;;;;;;;;;25.13;62.30;96721.88;222972;260;125666;-58
2022/08/13 16:59:52;;;;;;;;;;;;;;;25.10;62.58;96726.20;223885;260;123448;-59
2022/08/13 17:00:56;;;;;;;;;;;;;;;25.30;62.40;96726.98;223516;260;157848;-56
2022/08/13 17:01:57;;;;;;;;;;;;;;;25.20;62.38;96722.84;223380;260;123459;-56
2022/08/13 17:09:35;;;;;;;;;;;;;;;25.30;61.95;96723.62;222651;262;116663;-58
2022/08/13 17:10:36;;;;;;;;;;;;;;;25.34;61.93;96720.34;223754;260;155100;-58
2022/08/13 17:11:38;;;;;;;;;;;;;;;25.45;61.86;96722.53;222702;262;155489;-55
2022/08/13 17:12:39;;;;;;;;;;;;;;;25.35;61.82;96723.92;222657;262;155748;-57
2022/08/13 17:13:42;;;;;;;;;;;;;;;25.39;61.74;96724.79;222280;262;155440;-57
2022/08/13 17:14:43;;;;;;;;;;;;;;;25.58;61.43;96721.20;223605;260;156062;-56
2022/08/13 17:15:44;;;;;;;;;;;;;;;25.47;61.49;96721.58;223525;260;157132;-55
2022/08/13 17:16:46;;;;;;;;;;;;;;;25.38;61.74;96723.98;222390;262;155482;-58
2022/08/13 17:17:47;;;;;;;;;;;;;;;25.35;61.88;96723.34;222629;261;155535;-58
2022/08/13 17:18:49;;;;;;;;;;;;;;;25.41;61.57;96723.03;222341;261;153018;-56
2022/08/13 17:19:51;;;;;;;;;;;;;;;25.41;61.43;96724.42;222405;261;155575;-53
2022/08/13 17:20:52;;;;;;;;;;;;;;;25.37;61.57;96721.00;222174;262;153146;-56
2022/08/13 17:21:54;;;;;;;;;;;;;;;25.09;62.10;96724.56;221947;262;155569;-53
2022/08/13 17:22:55;;;;;;;;;;;;;;;24.93;62.34;96721.03;221562;262;155287;-56
2022/08/13 17:24:00;;;;;;;;;;;;;;;25.20;62.16;96724.23;221961;262;155203;-55
2022/08/13 17:25:01;;;;;;;;;;;;;;;24.95;62.36;96722.27;222042;262;157538;-54
2022/08/13 17:26:02;;;;;;;;;;;;;;;24.96;62.50;96721.68;221787;262;154484;-52
2022/08/13 17:27:04;;;;;;;;;;;;;;;24.93;62.48;96723.22;223084;260;156556;-55
2022/08/13 17:28:06;;;;;;;;;;;;;;;24.92;62.54;96727.73;223172;260;155807;-54
2022/08/13 17:29:07;;;;;;;;;;;;;;;24.80;62.70;96724.52;223026;260;156257;-54
2022/08/13 17:30:08;;;;;;;;;;;;;;;24.74;62.84;96725.36;222772;261;155570;-54
2022/08/13 17:31:10;;;;;;;;;;;;;;;24.69;62.92;96721.50;222600;261;155565;-54
2022/08/13 17:32:12;;;;;;;;;;;;;;;24.71;62.93;96721.94;222195;262;156126;-54
2022/08/13 17:33:13;;;;;;;;;;;;;;;24.66;63.06;96720.81;223879;260;156911;-52
2022/08/13 17:34:15;;;;;;;;;;;;;;;24.71;62.94;96721.14;223766;260;156479;-53
2022/08/13 17:35:16;;;;;;;;;;;;;;;24.58;63.16;96720.45;222373;262;155844;-53
2022/08/13 17:36:18;;;;;;;;;;;;;;;24.56;63.20;96721.95;222670;262;155368;-54
2022/08/13 17:37:19;;;;;;;;;;;;;;;24.32;63.54;96720.20;222104;261;157154;-56
2022/08/13 17:38:21;;;;;;;;;;;;;;;24.37;63.64;96719.95;223300;260;155458;-53
2022/08/13 17:39:22;;;;;;;;;;;;;;;24.33;63.79;96718.46;223757;260;157313;-56
2022/08/13 17:40:24;;;;;;;;;;;;;;;24.40;63.72;96719.22;223876;260;155517;-53
2022/08/13 17:41:27;;;;;;;;;;;;;;;24.38;63.81;96720.97;223858;260;155448;-56
2022/08/13 17:42:30;;;;;;;;;;;;;;;24.41;63.66;96722.22;223877;260;153912;-52
2022/08/13 17:43:31;;;;;;;;;;;;;;;24.31;63.84;96721.38;222734;262;154594;-55
2022/08/13 17:44:33;;;;;;;;;;;;;;;24.24;63.96;96718.64;223377;260;155411;-59
2022/08/13 17:45:34;;;;;;;;;;;;;;;24.12;64.28;96718.70;221934;262;155671;-54
2022/08/13 17:46:43;;;;;;;;;;;;;;;24.13;64.30;96718.93;223404;260;155773;-53
2022/08/13 17:47:40;;;;;;;;;;;;;;;24.20;64.21;96719.12;222861;260;126557;-55
2022/08/13 17:48:42;;;;;;;;;;;;;;;24.14;64.25;96718.38;223761;260;157297;-54
2022/08/13 17:49:44;;;;;;;;;;;;;;;23.98;64.57;96720.33;222608;262;157686;-57
2022/08/13 17:50:46;;;;;;;;;;;;;;;23.88;64.83;96718.31;223582;260;156425;-55
2022/08/13 17:51:48;;;;;;;;;;;;;;;23.80;64.99;96718.47;222051;262;154640;-54
2022/08/13 17:52:49;;;;;;;;;;;;;;;23.72;65.17;96719.47;222086;262;155719;-58
2022/08/13 17:53:51;;;;;;;;;;;;;;;23.70;65.31;96724.53;222841;260;155358;-53
2022/08/13 17:54:53;;;;;;;;;;;;;;;23.70;65.29;96724.53;222639;262;156292;-55
2022/08/13 17:55:54;;;;;;;;;;;;;;;23.65;65.39;96718.69;222658;262;153354;-56
2022/08/13 17:56:55;;;;;;;;;;;;;;;23.89;64.96;96721.88;222582;260;156460;-54
2022/08/13 17:57:57;;;;;;;;;;;;;;;23.78;65.08;96727.72;223678;260;155468;-54
2022/08/13 17:58:58;;;;;;;;;;;;;;;23.70;65.22;96721.18;223704;260;157823;-55
2022/08/13 18:00:00;;;;;;;;;;;;;;;23.81;64.99;96722.84;222548;262;154092;-55
2022/08/13 18:01:01;;;;;;;;;;;;;;;23.79;64.97;96723.78;223269;261;156375;-54
2022/08/13 18:02:02;;;;;;;;;;;;;;;23.83;64.95;96723.32;221663;262;156488;-56
2022/08/13 18:03:04;;;;;;;;;;;;;;;23.74;65.22;96721.30;222315;262;153079;-55
2022/08/13 18:04:05;;;;;;;;;;;;;;;23.69;65.32;96724.30;222719;262;155924;-55
2022/08/13 18:05:06;;;;;;;;;;;;;;;23.65;65.43;96724.22;222325;262;154519;-54
2022/08/13 18:06:10;;;;;;;;;;;;;;;23.62;65.39;96727.12;222678;262;155766;-53
2022/08/13 18:07:11;;;;;;;;;;;;;;;23.69;65.17;96727.08;222489;262;126632;-54
2022/08/13 18:08:13;;;;;;;;;;;;;;;23.70;65.20;96728.68;222150;261;155927;-54
2022/08/13 18:09:15;;;;;;;;;;;;;;;23.60;65.43;96730.80;222105;261;155900;-50
2022/08/13 18:10:16;;;;;;;;;;;;;;;23.60;65.48;96732.19;221976;262;155422;-50
2022/08/13 18:11:18;;;;;;;;;;;;;;;23.58;65.50;96733.13;222959;260;155821;-49
2022/08/13 18:12:20;;;;;;;;;;;;;;;23.62;65.37;96728.50;221129;263;155838;-50
2022/08/13 18:13:21;;;;;;;;;;;;;;;23.49;65.74;96726.91;221981;261;157327;-49
2022/08/13 18:14:27;;;;;;;;;;;;;;;23.49;65.71;96735.78;221970;262;154516;-52
2022/08/13 18:15:26;;;;;;;;;;;;;;;23.58;65.38;96731.73;221923;262;126815;-50
2022/08/13 18:16:28;;;;;;;;;;;;;;;23.51;65.50;96737.06;222031;262;154540;-51
2022/08/13 18:17:31;;;;;;;;;;;;;;;23.47;65.63;96733.38;222197;260;154377;-52
2022/08/13 18:18:32;;;;;;;;;;;;;;;23.43;65.75;96732.48;223240;260;154484;-54
2022/08/13 18:19:34;;;;;;;;;;;;;;;23.45;65.69;96731.55;222298;260;157888;-50
2022/08/13 18:20:35;;;;;;;;;;;;;;;23.37;65.91;96729.73;223141;260;154733;-49
2022/08/13 18:21:36;;;;;;;;;;;;;;;23.40;65.88;96733.20;222921;260;155502;-51
2022/08/13 18:22:40;;;;;;;;;;;;;;;23.31;66.10;96731.96;223147;260;155762;-50
2022/08/13 18:23:43;;;;;;;;;;;;;;;23.30;66.04;96732.32;222012;262;125136;-49
2022/08/13 18:24:44;;;;;;;;;;;;;;;23.34;65.93;96737.36;222619;260;157516;-50
2022/08/13 18:25:45;;;;;;;;;;;;;;;23.33;65.84;96734.38;222427;260;154576;-49
2022/08/13 18:26:47;;;;;;;;;;;;;;;23.29;65.98;96730.13;222127;262;156472;-49
2022/08/13 18:27:49;;;;;;;;;;;;;;;23.29;65.99;96734.86;223346;260;155816;-50
2022/08/13 18:28:50;;;;;;;;;;;;;;;23.34;65.96;96737.36;223161;260;155484;-52
2022/08/13 18:29:52;;;;;;;;;;;;;;;23.28;66.06;96734.02;223209;260;156099;-51
2022/08/13 18:30:55;;;;;;;;;;;;;;;23.31;65.97;96739.45;222292;262;159194;-50
2022/08/13 18:31:56;;;;;;;;;;;;;;;23.32;65.96;96734.14;222451;261;123388;-49
2022/08/13 18:32:57;;;;;;;;;;;;;;;23.43;65.72;96742.16;223572;260;155723;-49
2022/08/13 18:33:59;;;;;;;;;;;;;;;23.37;65.79;96739.41;222406;261;155417;-49
2022/08/13 18:35:00;;;;;;;;;;;;;;;23.32;65.86;96734.95;222942;260;154693;-50
2022/08/13 18:36:01;;;;;;;;;;;;;;;23.29;65.92;96738.42;223050;260;155763;-51
2022/08/13 18:37:03;;;;;;;;;;;;;;;23.29;65.89;96737.05;223458;260;155775;-49
2022/08/13 18:38:04;;;;;;;;;;;;;;;23.36;65.75;96744.72;223599;260;154675;-50
2022/08/13 18:39:06;;;;;;;;;;;;;;;23.37;65.64;96736.06;223450;260;156388;-50
2022/08/13 18:40:08;;;;;;;;;;;;;;;23.35;65.65;96742.53;222432;262;154770;-50
2022/08/13 18:41:09;;;;;;;;;;;;;;;23.33;65.64;96732.98;223384;260;154325;-49
2022/08/13 18:42:11;;;;;;;;;;;;;;;23.31;65.76;96738.87;223446;260;156429;-50
2022/08/13 18:43:12;;;;;;;;;;;;;;;23.28;65.77;96735.41;222796;260;156517;-48
2022/08/13 18:44:13;;;;;;;;;;;;;;;23.31;65.76;96735.30;221882;262;155442;-52
2022/08/13 18:45:15;;;;;;;;;;;;;;;23.24;65.87;96743.39;221955;261;156844;-50
2022/08/13 18:46:16;;;;;;;;;;;;;;;23.23;65.94;96743.16;223492;260;156743;-52
2022/08/13 18:47:17;;;;;;;;;;;;;;;23.26;65.93;96742.45;222860;260;155769;-50
2022/08/13 18:48:19;;;;;;;;;;;;;;;23.28;65.84;96740.14;222340;261;156516;-52
2022/08/13 18:49:21;;;;;;;;;;;;;;;23.27;65.81;96739.91;223167;260;154658;-49
2022/08/13 18:50:22;;;;;;;;;;;;;;;23.21;65.99;96741.33;221873;262;154676;-50
2022/08/13 18:51:23;;;;;;;;;;;;;;;23.23;65.95;96743.16;222284;262;156380;-50
2022/08/13 18:52:25;;;;;;;;;;;;;;;23.20;65.99;96744.67;222989;260;154155;-52
2022/08/13 18:53:26;;;;;;;;;;;;;;;23.13;66.19;96749.19;223199;260;157027;-50
2022/08/13 18:54:28;;;;;;;;;;;;;;;23.13;66.17;96739.52;223244;260;154532;-49
2022/08/13 18:55:29;;;;;;;;;;;;;;;23.11;66.26;96747.36;223251;260;156769;-49
2022/08/13 18:56:30;;;;;;;;;;;;;;;23.06;66.34;96749.77;221717;262;155744;-49
2022/08/13 18:57:32;;;;;;;;;;;;;;;23.07;66.35;96746.68;221961;262;157210;-51
2022/08/13 18:58:33;;;;;;;;;;;;;;;23.06;66.39;96751.95;223346;260;154537;-51
2022/08/13 18:59:35;;;;;;;;;;;;;;;23.03;66.45;96745.75;223313;260;156407;-53
2022/08/13 19:00:36;;;;;;;;;;;;;;;23.02;66.50;96748.30;223099;260;154514;-50
2022/08/13 19:01:37;;;;;;;;;;;;;;;23.02;66.46;96739.20;223190;260;158178;-51
2022/08/13 19:02:44;;;;;;;;;;;;;;;23.01;66.49;96748.06;223128;260;154553;-51
2022/08/13 19:03:45;;;;;;;;;;;;;;;23.03;66.50;96750.48;222554;260;122962;-49
2022/08/13 19:04:46;;;;;;;;;;;;;;;22.99;66.56;96746.23;223498;260;155370;-53
2022/08/13 19:05:48;;;;;;;;;;;;;;;23.09;66.48;96757.38;223065;260;155437;-53
2022/08/13 19:06:55;;;;;;;;;;;;;;;23.22;66.22;96752.62;222953;261;154504;-52
2022/08/13 19:07:55;;;;;;;;;;;;;;;23.27;65.93;96753.73;221931;261;124439;-55
2022/08/13 19:08:57;;;;;;;;;;;;;;;23.23;66.01;96751.45;223455;260;155498;-55
2022/08/13 19:09:59;;;;;;;;;;;;;;;23.21;66.08;96755.96;223367;260;157245;-54
2022/08/13 19:11:02;;;;;;;;;;;;;;;23.17;66.17;96754.23;222252;261;154519;-56
2022/08/13 19:12:06;;;;;;;;;;;;;;;23.17;66.21;96758.38;222890;260;155794;-57
2022/08/13 19:13:06;;;;;;;;;;;;;;;23.18;66.16;96748.92;223055;260;124833;-54
2022/08/13 19:14:08;;;;;;;;;;;;;;;23.17;66.15;96752.84;223252;260;155457;-57
2022/08/13 19:15:14;;;;;;;;;;;;;;;23.20;66.08;96749.41;221751;262;157065;-54
2022/08/13 19:16:13;;;;;;;;;;;;;;;23.22;65.96;96752.62;222330;261;126114;-52
2022/08/13 19:17:15;;;;;;;;;;;;;;;23.16;66.08;96753.43;223371;259;157220;-54
2022/08/13 19:18:17;;;;;;;;;;;;;;;23.16;66.10;96745.71;222199;261;157046;-57
2022/08/13 19:19:22;;;;;;;;;;;;;;;23.05;66.33;96751.73;221940;262;154525;-56
2022/08/13 19:20:21;;;;;;;;;;;;;;;23.03;66.43;96750.48;223356;260;127144;-54
2022/08/13 19:21:22;;;;;;;;;;;;;;;23.06;66.39;96749.19;222007;262;154657;-54
2022/08/13 19:22:25;;;;;;;;;;;;;;;23.21;66.12;96755.16;222424;261;156811;-58
2022/08/13 19:23:26;;;;;;;;;;;;;;;23.15;66.16;96751.02;223544;260;157251;-58
2022/08/13 19:24:28;;;;;;;;;;;;;;;23.06;66.30;96753.34;223280;260;155432;-55
2022/08/13 19:25:29;;;;;;;;;;;;;;;23.07;66.33;96751.38;223549;260;155721;-57
2022/08/13 19:26:31;;;;;;;;;;;;;;;23.03;66.45;96758.19;222099;262;154305;-59
2022/08/13 19:27:32;;;;;;;;;;;;;;;23.00;66.47;96753.37;222198;262;155619;-59
2022/08/13 19:28:34;;;;;;;;;;;;;;;23.10;66.37;96760.38;222058;262;155761;-57
2022/08/13 19:29:35;;;;;;;;;;;;;;;23.05;66.36;96754.49;223598;260;154549;-58
2022/08/13 19:30:37;;;;;;;;;;;;;;;23.14;66.23;96756.33;222458;262;154612;-58
2022/08/13 19:31:38;;;;;;;;;;;;;;;23.11;66.21;96757.03;223189;260;156144;-55
2022/08/13 19:32:40;;;;;;;;;;;;;;;23.14;66.15;96754.94;221825;261;156515;-55
2022/08/13 19:33:42;;;;;;;;;;;;;;;23.24;65.94;96751.69;222352;260;157287;-58
2022/08/13 19:34:44;;;;;;;;;;;;;;;23.26;65.80;96750.17;221698;261;153199;-58
2022/08/13 19:35:45;;;;;;;;;;;;;;;23.22;65.85;96748.47;222023;262;154700;-55
2022/08/13 19:36:47;;;;;;;;;;;;;;;23.25;65.82;96753.29;222383;261;157445;-57
2022/08/13 19:37:48;;;;;;;;;;;;;;;23.21;65.86;96753.77;222979;259;155734;-59
2022/08/13 19:38:49;;;;;;;;;;;;;;;23.29;65.70;96754.22;223388;260;157824;-56
2022/08/13 19:39:51;;;;;;;;;;;;;;;23.32;65.64;96750.73;221948;262;154562;-54
2022/08/13 19:40:53;;;;;;;;;;;;;;;23.31;65.58;96753.28;223829;260;156548;-53
2022/08/13 19:41:54;;;;;;;;;;;;;;;23.19;65.87;96754.71;224021;260;155712;-53
2022/08/13 19:42:56;;;;;;;;;;;;;;;23.09;66.07;96755.42;223856;259;153020;-53
2022/08/13 19:43:57;;;;;;;;;;;;;;;23.03;66.27;96760.95;223676;260;155764;-63
2022/08/13 19:45:26;;;;;;;;;;;;;;;23.12;66.33;96755.88;227862;255;32999;-66
2022/08/13 19:46:28;;;;;;;;;;;;;;;23.21;66.45;96760.11;225876;256;98931;-66
2022/08/13 19:47:29;;;;;;;;;;;;;;;23.47;66.14;96763.80;224162;259;100582;-65
2022/08/13 19:48:33;;;;;;;;;;;;;;;23.63;65.67;96761.93;222997;260;97991;-64
2022/08/13 19:49:34;;;;;;;;;;;;;;;23.82;65.42;96761.27;223439;259;126170;-65
2022/08/13 19:50:37;;;;;;;;;;;;;;;23.98;64.95;96760.47;223425;259;156441;-64
2022/08/13 19:51:38;;;;;;;;;;;;;;;24.11;64.68;96761.98;224974;258;156414;-65
2022/08/13 19:52:39;;;;;;;;;;;;;;;24.08;64.41;96763.52;223313;260;156317;-68
2022/08/13 19:53:41;;;;;;;;;;;;;;;24.05;64.40;96767.00;223788;259;154535;-68
2022/08/13 19:54:44;;;;;;;;;;;;;;;24.09;64.37;96758.78;224003;259;156354;-69
2022/08/13 19:55:45;;;;;;;;;;;;;;;24.23;64.18;96757.16;223503;259;156418;-69
2022/08/13 19:56:48;;;;;;;;;;;;;;;24.25;64.02;96759.60;224267;259;154632;-68
2022/08/13 19:57:49;;;;;;;;;;;;;;;24.32;63.91;96755.63;223939;259;156958;-69
2022/08/13 19:58:51;;;;;;;;;;;;;;;24.41;63.73;96752.10;224375;259;156387;-69
2022/08/13 19:59:59;;;;;;;;;;;;;;;24.53;63.48;96753.97;224351;259;156563;-69
2022/08/13 20:00:56;;;;;;;;;;;;;;;24.58;63.36;96749.55;223899;259;127076;-68
2022/08/13 20:02:00;;;;;;;;;;;;;;;24.67;63.04;96754.32;224132;259;156530;-68
2022/08/13 20:03:02;;;;;;;;;;;;;;;24.74;62.86;96750.31;223188;259;124542;-68
2022/08/13 20:04:06;;;;;;;;;;;;;;;24.76;62.85;96762.41;223753;259;122795;-68
2022/08/13 20:05:06;;;;;;;;;;;;;;;24.88;64.07;96749.02;224148;259;126056;-69
2022/08/13 20:06:08;;;;;;;;;;;;;;;24.92;62.73;96756.85;223012;259;154399;-69
2022/08/13 20:07:09;;;;;;;;;;;;;;;25.01;62.56;96756.07;224098;259;156263;-69
2022/08/13 20:08:10;;;;;;;;;;;;;;;25.00;63.29;96753.08;224093;259;154557;-69
2022/08/13 20:09:12;;;;;;;;;;;;;;;25.20;62.19;96754.73;223609;259;158633;-69
2022/08/13 20:10:13;;;;;;;;;;;;;;;25.20;63.25;96749.19;224085;259;155848;-69
2022/08/13 20:11:14;;;;;;;;;;;;;;;25.19;62.51;96746.17;223697;259;157704;-70
2022/08/13 20:12:16;;;;;;;;;;;;;;;25.26;62.08;96747.72;223944;259;154549;-69
2022/08/13 20:13:17;;;;;;;;;;;;;;;25.38;61.74;96745.38;224202;259;157295;-66
2022/08/13 20:14:18;;;;;;;;;;;;;;;25.46;61.61;96746.34;224279;259;155281;-67
2022/08/13 20:15:20;;;;;;;;;;;;;;;25.44;61.40;96744.52;223955;259;157840;-67
2022/08/13 20:16:21;;;;;;;;;;;;;;;25.29;61.86;96740.63;222751;260;156179;-66
2022/08/13 20:17:23;;;;;;;;;;;;;;;25.42;61.65;96744.09;224372;258;154476;-67
2022/08/13 20:18:24;;;;;;;;;;;;;;;25.56;61.44;96741.00;224513;259;155729;-66
2022/08/13 20:19:25;;;;;;;;;;;;;;;25.70;61.30;96737.72;224893;258;155516;-66
2022/08/13 20:20:27;;;;;;;;;;;;;;;25.88;60.93;96743.02;223720;258;157632;-68
2022/08/13 20:21:28;;;;;;;;;;;;;;;26.08;60.49;96745.76;223328;259;155417;-66
2022/08/13 20:22:30;;;;;;;;;;;;;;;26.14;60.41;96744.27;224107;259;157141;-68
2022/08/13 20:23:32;;;;;;;;;;;;;;;26.09;60.29;96737.64;223420;260;156317;-66
2022/08/13 20:24:34;;;;;;;;;;;;;;;26.08;60.25;96739.62;223862;259;154397;-67
2022/08/13 20:25:35;;;;;;;;;;;;;;;26.14;60.19;96744.27;224919;258;154642;-67
2022/08/13 20:26:43;;;;;;;;;;;;;;;26.17;60.02;96742.16;224963;258;155883;-65
2022/08/13 20:27:40;;;;;;;;;;;;;;;25.77;60.62;96742.02;223959;259;123723;-65
2022/08/13 20:28:43;;;;;;;;;;;;;;;25.62;60.96;96740.10;224404;259;156619;-67
2022/08/13 20:29:44;;;;;;;;;;;;;;;25.39;61.40;96735.30;223643;260;156487;-66
2022/08/13 20:30:46;;;;;;;;;;;;;;;25.57;61.61;96743.19;224295;258;155797;-67
2022/08/13 20:31:47;;;;;;;;;;;;;;;25.42;61.71;96735.77;223824;259;157209;-65
2022/08/13 20:32:48;;;;;;;;;;;;;;;25.39;61.65;96734.50;224066;260;155799;-69
2022/08/13 20:33:50;;;;;;;;;;;;;;;25.16;61.99;96739.17;223278;260;156398;-68
2022/08/13 20:34:52;;;;;;;;;;;;;;;25.47;61.87;96732.67;224901;258;158203;-54
2022/08/13 20:35:53;;;;;;;;;;;;;;;25.30;62.07;96729.17;224220;259;154733;-52
2022/08/13 20:36:55;;;;;;;;;;;;;;;24.86;62.58;96726.41;224125;258;157926;-53
2022/08/13 20:37:56;;;;;;;;;;;;;;;24.86;62.97;96731.95;222749;260;155273;-53
2022/08/13 20:38:58;;;;;;;;;;;;;;;24.70;63.20;96731.42;222619;261;156420;-56
2022/08/13 20:41:01;;;;;;;;;;;;;;;24.85;63.43;96732.53;227725;255;33897;-56
2022/08/13 20:42:02;;;;;;;;;;;;;;;24.99;63.54;96733.42;226284;257;98850;-56
2022/08/13 20:43:05;;;;;;;;;;;;;;;25.18;62.99;96729.31;223463;260;98881;-52
2022/08/13 20:44:07;;;;;;;;;;;;;;;25.24;62.69;96728.45;222216;261;98941;-52
2022/08/13 20:45:08;;;;;;;;;;;;;;;25.43;62.45;96734.59;223325;260;154502;-54
2022/08/13 20:46:10;;;;;;;;;;;;;;;25.32;62.22;96729.63;223229;260;155897;-54
2022/08/13 20:47:11;;;;;;;;;;;;;;;25.38;62.22;96729.53;223437;260;155415;-55
2022/08/13 20:48:13;;;;;;;;;;;;;;;25.26;62.40;96727.50;221340;263;156516;-55
2022/08/13 20:49:15;;;;;;;;;;;;;;;25.34;62.44;96734.22;221605;262;157206;-55
2022/08/13 20:50:16;;;;;;;;;;;;;;;25.44;62.04;96730.64;220006;264;154489;-57
2022/08/13 20:51:17;;;;;;;;;;;;;;;25.26;62.54;96726.11;220704;264;156375;-55
2022/08/13 20:52:19;;;;;;;;;;;;;;;25.35;62.51;96728.09;220869;263;154546;-54
2022/08/13 20:53:20;;;;;;;;;;;;;;;25.30;62.54;96723.62;222302;261;156506;-55
